Time;durP1;ratioP1;P1;durP2;ratioP2;P2;SDS_P1;SDS_P2;PMS_P1;PMS_P2;Temp;Humidity;BMP_temperature;BMP_pressure;BME280_temperature;BME280_humidity;BME280_pressure;Samples;Min_cycle;Max_cycle;Signal;HPM_P1;HPM_P2
2022/05/10 00:01:02;;;;;;;9.07;5.07;;;;;;;12.24;75.08;101944.94;5002527;28;20092;-68
2022/05/10 00:03:35;;;;;;;10.05;4.95;;;;;;;12.22;74.75;101941.47;5023114;28;20037;-68
2022/05/10 00:06:00;;;;;;;8.88;5.40;;;;;;;12.21;74.98;101945.03;5006109;28;20147;-68
2022/05/10 00:08:26;;;;;;;8.88;5.18;;;;;;;12.20;75.38;101938.00;5007790;28;20043;-69
2022/05/10 00:10:52;;;;;;;8.93;5.75;;;;;;;12.18;75.61;101937.16;5008890;28;21145;-68
2022/05/10 00:13:18;;;;;;;10.30;5.70;;;;;;;12.16;75.27;101929.25;5029889;28;20044;-68
2022/05/10 00:15:44;;;;;;;9.13;5.65;;;;;;;12.13;75.16;101932.03;5027410;28;20067;-70
2022/05/10 00:18:14;;;;;;;10.57;5.60;;;;;;;12.10;75.22;101924.19;4996780;28;20055;-68
2022/05/10 00:20:41;;;;;;;11.20;6.18;;;;;;;12.06;76.19;101926.06;4992899;28;20119;-69
2022/05/10 00:23:06;;;;;;;11.50;6.00;;;;;;;12.03;75.65;101926.16;5031566;28;20102;-69
2022/05/10 00:25:32;;;;;;;10.20;6.13;;;;;;;11.99;76.06;101929.81;5033240;28;20036;-68
2022/05/10 00:27:58;;;;;;;9.60;5.90;;;;;;;11.94;76.73;101931.78;5031762;28;20033;-69
2022/05/10 00:30:24;;;;;;;13.23;6.30;;;;;;;11.91;76.61;101935.38;5013388;28;20037;-69
2022/05/10 00:32:50;;;;;;;9.40;5.80;;;;;;;11.87;76.93;101930.25;5014604;28;20579;-69
2022/05/10 00:35:22;;;;;;;9.63;5.95;;;;;;;11.82;76.82;101939.22;5015179;28;20044;-68
2022/05/10 00:37:49;;;;;;;10.27;5.75;;;;;;;11.81;76.88;101931.28;4995375;28;20037;-69
2022/05/10 00:40:18;;;;;;;11.35;6.22;;;;;;;11.80;76.65;101921.59;5033813;28;20598;-69
2022/05/10 00:43:16;;;;;;;9.50;6.18;;;;;;;11.79;77.77;101918.09;5010880;28;20021;-69
2022/05/10 00:45:58;;;;;;;12.18;6.10;;;;;;;11.80;77.61;101914.53;5008664;28;20045;-68
2022/05/10 00:48:32;;;;;;;9.63;6.07;;;;;;;11.83;77.71;101913.56;5030838;28;20040;-69
2022/05/10 00:51:07;;;;;;;8.10;5.75;;;;;;;11.83;77.50;101913.56;5030876;28;20056;-69
2022/05/10 00:53:50;;;;;;;8.10;5.47;;;;;;;11.84;77.41;101909.09;5031623;28;20127;-69
2022/05/10 00:56:26;;;;;;;9.40;5.80;;;;;;;11.83;77.37;101908.25;5024538;28;20069;-69
2022/05/10 00:58:58;;;;;;;12.25;6.03;;;;;;;11.82;76.53;101898.53;5012029;28;20041;-69
2022/05/10 01:01:28;;;;;;;10.52;5.85;;;;;;;11.79;76.52;101899.53;5030294;28;20037;-69
2022/05/10 01:04:05;;;;;;;8.48;5.40;;;;;;;11.78;77.05;101889.81;5008184;28;20031;-69
2022/05/10 01:06:35;;;;;;;8.35;5.55;;;;;;;11.79;77.15;101896.00;5009396;28;20049;-69
2022/05/10 01:09:12;;;;;;;11.00;6.07;;;;;;;11.78;77.11;101887.16;5009256;28;20485;-69
2022/05/10 01:11:53;;;;;;;8.65;6.03;;;;;;;11.78;76.52;101895.13;5009125;28;20033;-69
2022/05/10 01:14:22;;;;;;;9.02;5.55;;;;;;;11.76;76.99;101896.13;5014426;28;20063;-69
2022/05/10 01:16:48;;;;;;;12.65;5.43;;;;;;;11.75;76.43;101889.94;5025670;28;20037;-69
2022/05/10 01:19:14;;;;;;;9.55;5.68;;;;;;;11.74;76.65;101889.97;5028156;28;20372;-69
2022/05/10 01:21:49;;;;;;;13.25;6.75;;;;;;;11.75;77.40;101879.31;5030656;28;21674;-69
2022/05/10 01:24:50;;;;;;;9.23;5.65;;;;;;;11.74;77.10;101885.53;5030364;28;20040;-69
2022/05/10 01:27:40;;;;;;;11.02;6.03;;;;;;;11.73;77.13;101886.47;5025525;28;20052;-69
2022/05/10 01:30:09;;;;;;;11.88;6.38;;;;;;;11.72;76.98;101890.03;5031683;28;20067;-69
2022/05/10 01:35:43;;;;;;;8.75;5.70;;;;;;;11.73;77.20;101874.97;5032429;28;20052;-69
2022/05/10 01:38:30;;;;;;;12.00;6.97;;;;;;;11.76;78.23;101873.09;5011801;28;20106;-69
2022/05/10 01:41:19;;;;;;;11.48;6.35;;;;;;;11.78;77.55;101876.53;5012741;28;20041;-69
2022/05/10 01:44:27;;;;;;;9.02;5.88;;;;;;;11.79;78.33;101869.47;5029853;28;20045;-69
2022/05/10 01:46:58;;;;;;;12.30;6.55;;;;;;;11.80;77.99;101865.88;5020157;28;20479;-68
2022/05/10 01:49:35;;;;;;;11.60;6.40;;;;;;;11.80;77.98;101860.59;5024819;28;20036;-68
2022/05/10 01:52:13;;;;;;;11.98;6.22;;;;;;;11.80;78.33;101861.47;4994445;28;20843;-67
2022/05/10 01:54:38;;;;;;;9.88;6.00;;;;;;;11.81;78.12;101854.34;5025742;28;20241;-69
2022/05/10 01:57:06;;;;;;;11.13;7.07;;;;;;;11.80;78.01;101845.53;5032618;28;20052;-69
2022/05/10 01:59:32;;;;;;;7.18;5.68;;;;;;;11.79;78.04;101840.28;5022544;28;20049;-69
2022/05/10 02:01:58;;;;;;;11.73;6.47;;;;;;;11.79;78.21;101837.63;5031582;28;20040;-69
2022/05/10 02:04:29;;;;;;;9.35;6.47;;;;;;;11.78;78.31;101831.44;5029330;28;20053;-69
2022/05/10 02:07:00;;;;;;;9.98;6.20;;;;;;;11.78;78.70;101831.44;5026412;28;20029;-69
2022/05/10 02:09:44;;;;;;;11.93;6.90;;;;;;;11.78;79.30;101836.75;5011049;28;20945;-68
2022/05/10 02:12:28;;;;;;;11.52;6.32;;;;;;;11.78;78.92;101839.41;5011335;28;20037;-69
2022/05/10 02:15:03;;;;;;;10.07;6.40;;;;;;;11.78;78.95;101827.94;5027245;28;20687;-69
2022/05/10 02:17:41;;;;;;;10.20;6.32;;;;;;;11.79;79.47;101830.56;5007476;28;20025;-68
2022/05/10 02:20:23;;;;;;;11.00;6.22;;;;;;;11.80;79.70;101824.31;5025090;28;20461;-69
2022/05/10 02:23:16;;;;;;;10.27;6.10;;;;;;;11.82;79.93;101816.28;5008238;28;20702;-68
2022/05/10 02:25:57;;;;;;;9.90;6.75;;;;;;;11.82;79.51;101810.97;5009633;28;20135;-68
2022/05/10 02:28:25;;;;;;;10.70;6.50;;;;;;;11.84;79.27;101817.13;5031059;28;20684;-68
2022/05/10 02:30:53;;;;;;;13.88;6.75;;;;;;;11.86;79.58;101811.72;5029696;28;20033;-69
2022/05/10 02:33:19;;;;;;;11.95;6.47;;;;;;;11.87;79.93;101813.50;5026751;28;20380;-68
2022/05/10 02:35:57;;;;;;;11.15;6.63;;;;;;;11.88;80.63;101810.75;5023380;28;20415;-69
2022/05/10 02:38:31;;;;;;;10.77;6.60;;;;;;;11.87;80.79;101797.56;5005927;28;20677;-68
2022/05/10 02:41:00;;;;;;;10.70;6.55;;;;;;;11.86;80.68;101793.16;5003020;28;20460;-69
2022/05/10 02:43:28;;;;;;;11.65;6.60;;;;;;;11.85;80.89;101791.44;5012919;28;20642;-68
2022/05/10 02:45:55;;;;;;;13.70;7.05;;;;;;;11.84;81.12;101787.06;5011625;28;20067;-68
2022/05/10 02:48:27;;;;;;;10.40;6.30;;;;;;;11.82;80.99;101785.31;5022622;28;20040;-68
2022/05/10 02:50:53;;;;;;;9.95;6.53;;;;;;;11.82;81.45;101787.09;5008673;28;20499;-69
2022/05/10 02:53:19;;;;;;;10.20;6.22;;;;;;;11.82;81.62;101784.44;5010434;28;20044;-69
2022/05/10 02:55:50;;;;;;;13.00;6.30;;;;;;;11.82;82.14;101779.13;5007695;28;20068;-69
2022/05/10 02:58:43;;;;;;;10.25;7.05;;;;;;;11.82;82.26;101774.72;5029652;28;20068;-69
2022/05/10 03:01:16;;;;;;;12.25;6.72;;;;;;;11.82;82.52;101777.38;5010597;28;20044;-68
2022/05/10 03:03:42;;;;;;;10.10;6.55;;;;;;;11.81;82.39;101773.00;5023571;28;20036;-69
2022/05/10 03:06:08;;;;;;;10.57;7.25;;;;;;;11.81;82.52;101774.75;5007207;28;20041;-69
2022/05/10 03:08:33;;;;;;;11.68;6.53;;;;;;;11.80;82.23;101768.59;5029268;28;20036;-69
2022/05/10 03:10:59;;;;;;;11.13;6.75;;;;;;;11.81;82.92;101769.47;5028353;28;20037;-68
2022/05/10 03:13:24;;;;;;;12.98;6.88;;;;;;;11.82;82.79;101773.84;5029333;28;20087;-69
2022/05/10 03:15:50;;;;;;;11.68;6.72;;;;;;;11.82;82.71;101764.09;5012085;28;20033;-68
2022/05/10 03:18:16;;;;;;;9.70;6.80;;;;;;;11.82;82.97;101758.78;5025484;28;20157;-69
2022/05/10 03:20:41;;;;;;;10.60;6.22;;;;;;;11.84;82.71;101755.22;5028900;28;20758;-69
2022/05/10 03:23:07;;;;;;;11.00;6.28;;;;;;;11.84;82.92;101755.22;5028291;28;20043;-69
2022/05/10 03:25:32;;;;;;;10.13;7.15;;;;;;;11.85;82.87;101754.28;5011159;28;20373;-69
2022/05/10 03:27:59;;;;;;;9.60;5.80;;;;;;;11.85;82.87;101746.34;5008653;28;20041;-70
2022/05/10 03:30:26;;;;;;;9.48;6.32;;;;;;;11.86;83.16;101748.94;5005495;28;20558;-69
2022/05/10 03:32:53;;;;;;;11.45;6.40;;;;;;;11.87;83.05;101741.84;5029520;28;20048;-69
2022/05/10 03:35:19;;;;;;;10.75;6.65;;;;;;;11.89;82.96;101746.19;5009712;28;20032;-69
2022/05/10 03:37:44;;;;;;;11.82;6.50;;;;;;;11.90;83.22;101739.97;5026189;28;20292;-69
2022/05/10 03:40:11;;;;;;;12.48;6.53;;;;;;;11.92;83.39;101743.41;5028184;28;20088;-69
2022/05/10 03:42:47;;;;;;;13.10;6.45;;;;;;;11.94;84.22;101740.72;5030106;28;20029;-69
2022/05/10 03:45:13;;;;;;;10.77;6.40;;;;;;;11.97;83.54;101740.56;5026302;28;20316;-69
2022/05/10 03:47:39;;;;;;;12.25;6.65;;;;;;;11.98;83.96;101734.34;5026253;28;20471;-69
2022/05/10 03:50:07;;;;;;;11.18;7.03;;;;;;;11.99;84.10;101732.56;5028706;28;20096;-69
2022/05/10 03:52:33;;;;;;;12.93;6.93;;;;;;;12.00;84.21;101734.28;5029487;28;20484;-69
2022/05/10 03:54:59;;;;;;;10.65;6.43;;;;;;;12.00;84.21;101734.28;5010747;28;20128;-69
2022/05/10 03:57:24;;;;;;;11.20;6.60;;;;;;;12.01;84.88;101723.63;5029601;28;20099;-69
2022/05/10 03:59:50;;;;;;;11.48;6.47;;;;;;;12.01;84.71;101723.63;5026360;28;20071;-69
2022/05/10 04:02:16;;;;;;;11.35;7.07;;;;;;;12.02;84.98;101722.69;5027317;28;20032;-69
2022/05/10 04:04:42;;;;;;;8.13;5.93;;;;;;;12.02;85.51;101724.47;5006038;28;20037;-69
2022/05/10 04:07:08;;;;;;;10.68;7.22;;;;;;;12.00;85.60;101721.91;5026686;28;20352;-69
2022/05/10 04:09:34;;;;;;;11.75;7.15;;;;;;;12.03;85.29;101731.50;5011231;28;20570;-69
2022/05/10 04:12:00;;;;;;;9.57;6.35;;;;;;;12.02;86.07;101717.41;5028125;28;20040;-69
2022/05/10 04:14:26;;;;;;;11.93;7.47;;;;;;;12.04;85.66;101720.03;5028099;28;20034;-70
2022/05/10 04:16:51;;;;;;;11.63;6.72;;;;;;;12.06;85.97;101712.88;5029160;28;20070;-69
2022/05/10 04:19:17;;;;;;;9.25;6.93;;;;;;;12.07;86.33;101722.56;5025222;28;20030;-69
2022/05/10 04:21:42;;;;;;;12.05;6.80;;;;;;;12.10;86.64;101714.50;5027542;28;20041;-70
2022/05/10 04:24:08;;;;;;;10.40;6.78;;;;;;;12.11;86.75;101708.25;5028034;28;20028;-69
2022/05/10 04:26:34;;;;;;;10.52;6.47;;;;;;;12.12;86.46;101702.03;5027829;28;20045;-69
2022/05/10 04:28:59;;;;;;;10.00;6.63;;;;;;;12.14;86.85;101697.50;5029895;28;20055;-69
2022/05/10 04:31:25;;;;;;;10.15;6.45;;;;;;;12.17;86.96;101701.84;5030722;28;20043;-70
2022/05/10 04:33:50;;;;;;;10.48;6.72;;;;;;;12.20;86.71;101707.03;5030260;28;20021;-69
2022/05/10 04:36:15;;;;;;;10.88;6.28;;;;;;;12.21;86.41;101700.81;5027333;28;20438;-69
2022/05/10 04:38:44;;;;;;;8.45;6.03;;;;;;;12.25;86.59;101694.44;5027779;28;20029;-69
2022/05/10 04:41:24;;;;;;;11.10;6.82;;;;;;;12.30;86.47;101694.25;5028418;28;20044;-69
2022/05/10 04:43:51;;;;;;;10.48;6.60;;;;;;;12.36;86.34;101694.88;5030787;28;20047;-69
2022/05/10 04:46:17;;;;;;;11.95;6.53;;;;;;;12.42;86.15;101692.94;5029231;28;20051;-69
2022/05/10 04:48:42;;;;;;;12.90;6.80;;;;;;;12.47;86.27;101690.94;5030525;28;20740;-69
2022/05/10 04:51:08;;;;;;;10.23;6.25;;;;;;;12.53;85.68;101685.38;5012473;28;20719;-69
2022/05/10 04:53:34;;;;;;;11.90;6.28;;;;;;;12.59;85.27;101695.75;5030336;28;20095;-69
2022/05/10 04:55:59;;;;;;;8.88;6.00;;;;;;;12.65;85.35;101689.34;5030232;28;20048;-69
2022/05/10 04:58:25;;;;;;;12.07;6.50;;;;;;;12.72;85.04;101695.25;5028234;28;20435;-69
2022/05/10 05:00:52;;;;;;;9.93;6.47;;;;;;;12.78;85.43;101692.34;5007555;28;20060;-69
2022/05/10 05:03:17;;;;;;;10.30;6.28;;;;;;;12.84;84.87;101676.16;5022046;28;20578;-69
2022/05/10 05:05:43;;;;;;;10.02;5.78;;;;;;;12.92;84.71;101675.84;5027158;28;20259;-69
2022/05/10 05:08:08;;;;;;;9.75;6.07;;;;;;;12.97;84.98;101672.97;5030480;28;20698;-70
2022/05/10 05:10:34;;;;;;;13.60;6.68;;;;;;;12.99;84.48;101674.66;5029588;28;20025;-69
2022/05/10 05:12:59;;;;;;;11.73;6.07;;;;;;;13.04;84.53;101675.28;5027488;28;20502;-70
2022/05/10 05:15:25;;;;;;;10.43;5.88;;;;;;;13.07;84.50;101674.31;5001570;28;20565;-70
2022/05/10 05:17:50;;;;;;;11.38;6.43;;;;;;;13.11;84.13;101683.88;5014274;28;20116;-69
2022/05/10 05:20:16;;;;;;;9.68;5.75;;;;;;;13.17;83.95;101682.75;5023698;28;20048;-69
2022/05/10 05:22:41;;;;;;;9.93;6.38;;;;;;;13.22;83.85;101677.22;5026422;28;20069;-70
2022/05/10 05:25:07;;;;;;;10.82;5.93;;;;;;;13.25;84.06;101671.78;5001532;28;20039;-69
2022/05/10 05:27:33;;;;;;;12.18;6.30;;;;;;;13.29;83.92;101662.75;5022756;28;20037;-69
2022/05/10 05:29:59;;;;;;;8.80;6.13;;;;;;;13.34;83.91;101658.09;5024900;28;20102;-70
2022/05/10 05:32:29;;;;;;;12.88;6.38;;;;;;;13.39;83.51;101663.19;5007954;28;20406;-69
2022/05/10 05:34:56;;;;;;;8.65;5.85;;;;;;;13.44;83.64;101658.53;5013031;28;20033;-71
2022/05/10 05:37:33;;;;;;;11.63;6.78;;;;;;;13.50;83.16;101658.31;5009253;28;20036;-78
2022/05/10 05:40:08;;;;;;;9.70;5.97;;;;;;;13.57;83.44;101662.41;5011281;28;20099;-76
2022/05/10 05:42:35;;;;;;;9.02;5.97;;;;;;;13.65;82.92;101656.75;5030407;28;20487;-78
2022/05/10 05:45:01;;;;;;;11.80;6.45;;;;;;;13.72;82.71;101662.66;4993492;28;20043;-78
2022/05/10 05:47:26;;;;;;;8.65;5.47;;;;;;;13.79;82.53;101661.44;5029400;28;20025;-79
2022/05/10 05:49:52;;;;;;;9.60;5.70;;;;;;;13.87;82.51;101661.09;5015699;28;20060;-78
2022/05/10 05:52:20;;;;;;;9.73;5.68;;;;;;;13.96;82.25;101659.78;5023618;28;20120;-78
2022/05/10 05:54:46;;;;;;;8.23;5.80;;;;;;;14.05;81.76;101656.69;5032818;28;20032;-78
2022/05/10 05:57:12;;;;;;;13.48;6.15;;;;;;;14.15;82.01;101657.13;5033887;28;20080;-78
2022/05/10 05:59:38;;;;;;;8.35;6.05;;;;;;;14.25;81.50;101652.22;5018563;28;20460;-78
2022/05/10 06:02:12;;;;;;;9.82;6.10;;;;;;;14.35;81.34;101657.97;5007255;28;20127;-77
2022/05/10 06:04:38;;;;;;;10.48;5.95;;;;;;;14.45;81.21;101656.59;5005203;28;20044;-75
2022/05/10 06:07:03;;;;;;;9.80;6.10;;;;;;;14.53;80.59;101656.19;5012054;28;20033;-74
2022/05/10 06:09:29;;;;;;;9.50;5.95;;;;;;;14.61;80.74;101658.50;5014933;28;20025;-75
2022/05/10 06:11:54;;;;;;;9.55;6.30;;;;;;;14.66;80.42;101656.47;5016043;28;20029;-75
2022/05/10 06:14:20;;;;;;;10.75;5.57;;;;;;;14.71;80.21;101650.91;5000467;28;20120;-75
2022/05/10 06:16:45;;;;;;;9.90;5.95;;;;;;;14.76;79.83;101649.75;4991933;28;20383;-75
2022/05/10 06:19:11;;;;;;;11.07;6.35;;;;;;;14.80;79.63;101648.66;5012859;28;20132;-76
2022/05/10 06:21:38;;;;;;;9.27;5.57;;;;;;;14.86;79.58;101649.31;5009383;28;20045;-75
2022/05/10 06:24:04;;;;;;;10.65;5.78;;;;;;;14.91;79.31;101647.25;4980624;28;20039;-72
2022/05/10 06:26:30;;;;;;;7.78;5.57;;;;;;;14.98;79.48;101646.00;5011255;28;20397;-72
2022/05/10 06:28:55;;;;;;;9.75;6.28;;;;;;;15.05;79.39;101636.72;5014446;28;20044;-72
2022/05/10 06:31:21;;;;;;;11.20;5.93;;;;;;;15.15;79.12;101645.13;5010759;28;20034;-72
2022/05/10 06:33:46;;;;;;;8.40;5.93;;;;;;;15.25;78.86;101633.97;5008717;28;20044;-76
2022/05/10 06:36:12;;;;;;;9.73;5.45;;;;;;;15.34;78.77;101626.34;4995536;28;20044;-75
2022/05/10 06:38:37;;;;;;;10.73;5.80;;;;;;;15.47;78.60;101623.00;4999423;28;20033;-76
2022/05/10 06:41:04;;;;;;;9.50;5.55;;;;;;;15.57;78.22;101621.56;4960936;28;20648;-80
2022/05/10 06:43:35;;;;;;;12.05;5.75;;;;;;;15.67;78.18;101621.94;4995349;28;20038;-73
2022/05/10 06:46:07;;;;;;;8.45;5.82;;;;;;;15.76;78.05;101625.91;4978367;28;20036;-75
2022/05/10 06:48:32;;;;;;;9.23;5.68;;;;;;;15.81;77.86;101623.84;5007919;28;20022;-75
2022/05/10 06:50:58;;;;;;;8.77;6.10;;;;;;;15.86;77.65;101621.78;4995023;28;20492;-75
2022/05/10 06:53:27;;;;;;;7.75;5.03;;;;;;;15.91;77.42;101623.34;4996318;28;20040;-82
2022/05/10 06:55:52;;;;;;;7.07;4.97;;;;;;;15.93;77.53;101630.34;4998821;28;20069;-74
2022/05/10 06:58:18;;;;;;;9.38;5.65;;;;;;;15.97;77.55;101623.03;4995687;28;20191;-73
2022/05/10 07:00:43;;;;;;;9.30;5.78;;;;;;;15.94;77.91;101617.84;4997741;28;20724;-73
2022/05/10 07:03:11;;;;;;;10.52;6.07;;;;;;;15.91;78.13;101608.16;4971401;28;20037;-73
2022/05/10 07:05:37;;;;;;;9.18;5.50;;;;;;;15.89;78.50;101605.59;5014567;28;20080;-73
2022/05/10 07:08:03;;;;;;;9.98;5.68;;;;;;;15.89;78.65;101600.25;4990149;28;20652;-73
2022/05/10 07:10:31;;;;;;;10.40;5.97;;;;;;;15.88;78.91;101603.00;4998749;28;20370;-73
2022/05/10 07:12:58;;;;;;;9.25;6.20;;;;;;;15.86;79.06;101600.41;4999785;28;20177;-73
2022/05/10 07:15:24;;;;;;;10.63;6.05;;;;;;;15.85;79.18;101603.19;5014461;28;20596;-73
2022/05/10 07:17:50;;;;;;;8.95;5.70;;;;;;;15.86;79.37;101605.75;4998595;28;20041;-74
2022/05/10 07:20:17;;;;;;;7.32;5.85;;;;;;;15.87;79.46;101595.94;5011122;28;20488;-74
2022/05/10 07:22:44;;;;;;;9.18;5.70;;;;;;;15.90;79.86;101579.75;4989277;28;20042;-73
2022/05/10 07:25:16;;;;;;;10.23;5.63;;;;;;;15.96;79.56;101578.59;4982972;28;20084;-73
2022/05/10 07:27:42;;;;;;;9.88;6.22;;;;;;;16.01;79.36;101571.16;5014441;28;20045;-72
2022/05/10 07:30:09;;;;;;;10.23;5.53;;;;;;;16.10;78.69;101559.97;4988159;28;20055;-73
2022/05/10 07:32:35;;;;;;;9.43;5.90;;;;;;;16.20;78.31;101554.94;4989670;28;20597;-72
2022/05/10 07:35:02;;;;;;;9.23;5.68;;;;;;;16.29;77.57;101556.22;4970562;28;20130;-73
2022/05/10 07:37:29;;;;;;;10.70;5.55;;;;;;;16.36;77.44;101546.91;5012801;28;20099;-73
2022/05/10 07:39:54;;;;;;;7.72;5.10;;;;;;;16.40;76.66;101540.41;5013807;28;20034;-73
2022/05/10 07:42:20;;;;;;;6.85;5.22;;;;;;;16.47;76.64;101540.91;5013198;28;20029;-73
2022/05/10 07:44:45;;;;;;;7.75;5.10;;;;;;;16.52;75.88;101541.47;5014263;28;20037;-73
2022/05/10 07:47:11;;;;;;;6.47;4.72;;;;;;;16.60;76.42;101527.66;5012460;28;20621;-74
2022/05/10 07:49:36;;;;;;;6.85;5.22;;;;;;;16.69;75.82;101524.44;5014370;28;20479;-74
2022/05/10 07:52:03;;;;;;;7.10;4.45;;;;;;;16.81;75.42;101528.19;4996465;28;20033;-74
2022/05/10 07:54:29;;;;;;;8.63;5.10;;;;;;;16.90;74.72;101532.13;5006045;28;20468;-74
2022/05/10 07:56:54;;;;;;;7.07;4.88;;;;;;;17.03;74.58;101526.88;5013195;28;20327;-74
2022/05/10 07:59:20;;;;;;;8.35;5.07;;;;;;;17.14;74.57;101517.31;5016645;28;20568;-75
2022/05/10 08:01:45;;;;;;;7.28;4.47;;;;;;;17.27;74.02;101517.41;5027989;28;20043;-75
2022/05/10 08:04:11;;;;;;;5.90;4.80;;;;;;;17.41;74.05;101520.06;4992040;28;20086;-75
2022/05/10 08:06:36;;;;;;;9.80;4.97;;;;;;;17.53;73.98;101506.88;5029318;28;20025;-74
2022/05/10 08:09:03;;;;;;;8.75;4.70;;;;;;;17.67;73.46;101498.81;5030526;28;20044;-74
2022/05/10 08:11:28;;;;;;;7.15;4.28;;;;;;;17.80;73.33;101498.00;5029945;28;20037;-74
2022/05/10 08:13:54;;;;;;;7.28;4.43;;;;;;;17.91;72.63;101499.00;5012605;28;20524;-74
2022/05/10 08:16:19;;;;;;;5.28;4.03;;;;;;;18.02;71.99;101498.28;5029737;28;20036;-74
2022/05/10 08:18:49;;;;;;;7.22;3.90;;;;;;;18.15;71.58;101492.13;4997541;28;20099;-75
2022/05/10 08:21:15;;;;;;;5.88;3.95;;;;;;;18.23;71.54;101492.47;5029738;28;20060;-75
2022/05/10 08:23:41;;;;;;;6.93;4.22;;;;;;;18.33;70.91;101506.09;5008404;28;20020;-75
2022/05/10 08:26:07;;;;;;;6.70;4.03;;;;;;;18.43;69.80;101500.97;5012430;28;20037;-74
2022/05/10 08:28:36;;;;;;;6.50;3.65;;;;;;;18.51;69.66;101490.56;5027862;28;20136;-71
2022/05/10 08:31:04;;;;;;;6.90;3.88;;;;;;;18.59;68.98;101490.91;5029092;28;20567;-75
2022/05/10 08:33:33;;;;;;;9.65;4.28;;;;;;;18.69;68.91;101495.63;5027063;28;20160;-75
2022/05/10 08:35:59;;;;;;;7.18;3.72;;;;;;;18.81;68.34;101492.09;5010480;28;20677;-74
2022/05/10 08:38:26;;;;;;;5.07;3.75;;;;;;;18.93;68.29;101493.06;5023476;28;20033;-77
2022/05/10 08:41:05;;;;;;;5.68;3.45;;;;;;;19.07;67.51;101494.75;5029648;28;20033;-76
2022/05/10 08:43:47;;;;;;;6.93;3.75;;;;;;;19.18;66.27;101483.25;5032844;28;20585;-76
2022/05/10 08:46:21;;;;;;;6.97;3.67;;;;;;;19.26;66.57;101482.72;5030513;28;20507;-77
2022/05/10 08:48:51;;;;;;;5.82;3.40;;;;;;;19.35;66.84;101483.88;5014089;28;20788;-77
2022/05/10 08:51:16;;;;;;;7.80;3.90;;;;;;;19.45;63.85;101468.78;4977998;28;20030;-76
2022/05/10 08:53:42;;;;;;;4.13;2.88;;;;;;;19.58;66.16;101467.91;5032861;28;20041;-74
2022/05/10 08:56:25;;;;;;;4.57;3.05;;;;;;;19.72;64.87;101462.34;5008863;28;20037;-76
2022/05/10 08:58:50;;;;;;;;;;;;;;;19.81;62.33;101452.75;4983814;28;21828;-75
2022/05/10 09:01:20;;;;;;;5.03;3.30;;;;;;;19.89;64.51;101458.41;5030365;28;19928;-77
2022/05/10 09:03:56;;;;;;;5.70;3.70;;;;;;;19.97;63.59;101459.66;5028158;28;20064;-76
2022/05/10 09:06:30;;;;;;;4.80;3.50;;;;;;;20.03;64.13;101465.44;5016113;28;20083;-78
2022/05/10 09:09:24;;;;;;;4.57;3.50;;;;;;;20.11;59.91;101456.81;5026107;28;20033;-76
2022/05/10 09:11:59;;;;;;;7.88;3.05;;;;;;;20.22;61.10;101456.81;5011855;28;20044;-77
2022/05/10 09:14:37;;;;;;;4.03;3.10;;;;;;;20.33;56.82;101456.00;5015918;28;20065;-75
2022/05/10 09:17:03;;;;;;;4.35;3.22;;;;;;;20.47;60.75;101462.13;5013126;28;20093;-76
2022/05/10 09:19:41;;;;;;;5.60;3.33;;;;;;;20.57;57.80;101473.03;5014876;28;20079;-77
2022/05/10 09:22:17;;;;;;;3.95;3.08;;;;;;;20.62;57.86;101469.03;5016241;28;20559;-78
2022/05/10 09:24:49;;;;;;;6.65;3.65;;;;;;;20.64;57.93;101466.19;4992069;28;20060;-77
2022/05/10 09:27:14;;;;;;;6.75;4.13;;;;;;;20.62;58.99;101460.09;5013512;28;20402;-76
2022/05/10 09:29:46;;;;;;;6.78;4.10;;;;;;;20.62;57.25;101460.94;5030544;28;20035;-78
2022/05/10 09:35:16;;;;;;;6.90;3.83;;;;;;;20.66;59.83;101464.25;5029669;28;20040;-75
2022/05/10 09:38:00;;;;;;;6.85;4.47;;;;;;;20.70;59.92;101467.56;5032252;28;20522;-78
2022/05/10 09:40:32;;;;;;;5.82;4.53;;;;;;;20.71;58.82;101467.41;5030796;28;20143;-79
2022/05/10 09:43:15;;;;;;;6.38;4.13;;;;;;;20.74;58.95;101456.44;5011083;28;20205;-77
2022/05/10 09:45:40;;;;;;;;;;;;;;;20.79;58.60;101458.75;5032200;28;20033;-75
2022/05/10 09:48:09;;;;;;;4.60;4.13;;;;;;;20.81;59.91;101461.31;4998721;28;19925;-76
2022/05/10 09:50:34;;;;;;;7.70;4.90;;;;;;;20.90;60.00;101468.69;4994078;28;20037;-76
2022/05/10 09:53:17;;;;;;;6.70;4.68;;;;;;;20.95;57.70;101469.19;5029179;28;20037;-76
2022/05/10 09:55:52;;;;;;;6.18;4.80;;;;;;;21.01;59.04;101471.38;5009855;28;20032;-76
2022/05/10 09:58:21;;;;;;;7.95;5.13;;;;;;;21.08;59.97;101477.09;5017690;28;20517;-74
2022/05/10 10:00:52;;;;;;;6.43;5.00;;;;;;;21.02;58.79;101461.44;5021081;28;20059;-74
2022/05/10 10:03:26;;;;;;;6.97;5.22;;;;;;;20.94;59.45;101463.91;5009538;28;20037;-79
2022/05/10 10:05:55;;;;;;;6.88;4.90;;;;;;;20.93;60.21;101473.84;5030233;28;20068;-77
2022/05/10 10:08:38;;;;;;;9.13;5.55;;;;;;;20.91;59.54;101462.31;5031792;28;20048;-76
2022/05/10 10:11:13;;;;;;;7.90;5.30;;;;;;;20.91;60.06;101465.00;5031221;28;20044;-77
2022/05/10 10:13:40;;;;;;;6.75;5.35;;;;;;;20.90;60.18;101460.59;5009915;28;20037;-77
2022/05/10 10:16:24;;;;;;;6.78;5.55;;;;;;;20.87;58.96;101459.00;5025404;28;20111;-77
2022/05/10 10:18:56;;;;;;;7.60;5.30;;;;;;;20.81;58.80;101459.47;4993797;28;20163;-77
2022/05/10 10:21:33;;;;;;;8.27;4.95;;;;;;;20.77;59.32;101458.84;5014476;28;20074;-78
2022/05/10 10:24:00;;;;;;;7.53;5.53;;;;;;;20.72;59.80;101465.59;5009803;28;20041;-79
2022/05/10 10:26:25;;;;;;;5.40;4.85;;;;;;;20.70;60.16;101452.25;5026172;28;20041;-77
2022/05/10 10:28:58;;;;;;;8.82;5.55;;;;;;;20.67;59.77;101459.72;5032471;28;20043;-79
2022/05/10 10:31:27;;;;;;;7.55;5.53;;;;;;;20.62;60.51;101460.09;5010217;28;20033;-76
2022/05/10 10:34:02;;;;;;;8.07;5.55;;;;;;;20.53;60.36;101456.28;5024836;28;20033;-75
2022/05/10 10:36:38;;;;;;;8.10;5.40;;;;;;;20.48;60.48;101458.47;5014129;28;21009;-76
2022/05/10 10:39:23;;;;;;;9.63;5.95;;;;;;;20.43;60.58;101456.13;5011988;28;20120;-75
2022/05/10 10:42:01;;;;;;;9.98;5.20;;;;;;;20.38;60.51;101457.47;5029037;28;20811;-76
2022/05/10 10:44:29;;;;;;;7.45;5.60;;;;;;;20.34;60.61;101451.50;5009900;28;20212;-76
2022/05/10 10:47:20;;;;;;;8.98;5.70;;;;;;;20.30;60.50;101466.13;4991188;28;20068;-76
2022/05/10 10:49:57;;;;;;;9.38;5.00;;;;;;;20.30;60.95;101466.13;5010473;28;20067;-75
2022/05/10 10:52:24;;;;;;;5.72;4.47;;;;;;;20.31;60.58;101452.56;5011206;28;20120;-78
2022/05/10 10:54:50;;;;;;;7.05;4.32;;;;;;;20.34;61.02;101446.09;4993624;28;20458;-75
2022/05/10 10:57:34;;;;;;;6.07;3.75;;;;;;;20.33;60.59;101452.47;5031978;28;20037;-75
2022/05/10 11:00:14;;;;;;;5.65;3.42;;;;;;;20.32;59.57;101456.97;5026463;28;20060;-76
2022/05/10 11:03:08;;;;;;;6.28;3.47;;;;;;;20.30;59.32;101450.88;5028966;28;20036;-77
2022/05/10 11:06:05;;;;;;;4.32;3.28;;;;;;;20.27;58.98;101461.84;5031754;28;20037;-75
2022/05/10 11:08:42;;;;;;;5.75;3.35;;;;;;;20.26;60.10;101456.59;5014255;28;20028;-76
2022/05/10 11:11:41;;;;;;;7.47;3.28;;;;;;;20.32;60.28;101462.34;5007728;28;20057;-75
2022/05/10 11:14:25;;;;;;;4.88;3.22;;;;;;;20.40;59.11;101452.81;5031499;28;20064;-74
2022/05/10 11:17:12;;;;;;;5.63;3.05;;;;;;;20.46;58.46;101447.84;5026833;28;20037;-75
2022/05/10 11:19:50;;;;;;;4.05;3.10;;;;;;;20.47;58.55;101444.19;5020312;28;20037;-74
2022/05/10 11:22:39;;;;;;;5.60;2.67;;;;;;;20.60;59.07;101443.22;5024671;28;20057;-75
2022/05/10 11:25:42;;;;;;;4.45;2.70;;;;;;;20.76;58.59;101456.31;4992594;28;20532;-74
2022/05/10 11:28:29;;;;;;;4.90;2.70;;;;;;;20.88;58.05;101449.13;5029250;28;20104;-76
2022/05/10 11:31:34;;;;;;;5.10;2.42;;;;;;;20.89;54.43;101437.38;5028990;28;20037;-76
2022/05/10 11:34:24;;;;;;;4.65;2.10;;;;;;;20.92;55.03;101445.19;5011829;28;21010;-76
2022/05/10 11:36:51;;;;;;;4.53;2.40;;;;;;;20.86;53.69;101445.72;5013750;28;20418;-77
2022/05/10 11:39:23;;;;;;;3.30;2.20;;;;;;;20.82;55.20;101441.50;5009630;28;20102;-76
2022/05/10 11:41:59;;;;;;;4.60;2.13;;;;;;;20.75;52.25;101443.81;5030033;28;20033;-75
2022/05/10 11:44:42;;;;;;;4.40;2.22;;;;;;;20.72;53.82;101441.38;5027762;28;20338;-74